createdAt,value
2018-01-26T00:00:52.308Z,-0.90
2018-01-26T00:03:19.060Z,-0.90
2018-01-26T00:05:45.739Z,-1.00
2018-01-26T00:08:12.430Z,-1.00
2018-01-26T00:10:39.880Z,-1.00
2018-01-26T00:13:07.327Z,-1.10
2018-01-26T00:15:34.088Z,-1.10
2018-01-26T00:18:01.513Z,-1.10
2018-01-26T00:20:28.212Z,-1.10
2018-01-26T00:22:54.894Z,-1.10
2018-01-26T00:25:21.612Z,-1.20
2018-01-26T00:27:48.400Z,-1.20
2018-01-26T00:30:15.116Z,-1.20
2018-01-26T00:32:43.428Z,-1.20
2018-01-26T00:35:10.156Z,-1.30
2018-01-26T00:37:36.854Z,-1.20
2018-01-26T00:40:03.575Z,-1.20
2018-01-26T00:42:31.043Z,-1.10
2018-01-26T00:44:58.511Z,-1.20
2018-01-26T00:47:25.897Z,-1.10
2018-01-26T00:49:52.594Z,-1.10
2018-01-26T00:52:19.255Z,-1.10
2018-01-26T00:54:46.688Z,-1.10
2018-01-26T00:57:13.405Z,-1.10
2018-01-26T00:59:40.096Z,-1.20
2018-01-26T01:02:07.618Z,-1.20
2018-01-26T01:04:34.297Z,-1.30
2018-01-26T01:07:01.805Z,-1.20
2018-01-26T01:09:28.480Z,-1.20
2018-01-26T01:11:55.196Z,-1.20
2018-01-26T01:14:21.843Z,-1.20
2018-01-26T01:16:48.518Z,-1.20
2018-01-26T01:19:15.214Z,-1.20
2018-01-26T01:21:41.956Z,-1.30
2018-01-26T01:24:08.627Z,-1.30
2018-01-26T01:26:35.314Z,-1.40
2018-01-26T01:29:02.755Z,-1.40
2018-01-26T01:31:29.417Z,-1.40
2018-01-26T01:33:56.817Z,-1.50
2018-01-26T01:36:23.494Z,-1.50
2018-01-26T01:38:50.172Z,-1.50
2018-01-26T01:41:16.878Z,-1.50
2018-01-26T01:43:43.574Z,-1.50
2018-01-26T01:46:10.218Z,-1.50
2018-01-26T01:48:36.919Z,-1.50
2018-01-26T01:51:04.365Z,-1.50
2018-01-26T01:53:31.022Z,-1.50
2018-01-26T01:55:58.473Z,-1.50
2018-01-26T01:58:25.133Z,-1.50
2018-01-26T02:00:52.649Z,-1.50
2018-01-26T02:03:19.348Z,-1.50
2018-01-26T02:05:46.753Z,-1.40
2018-01-26T02:08:13.469Z,-1.50
2018-01-26T02:10:40.150Z,-1.40
2018-01-26T02:13:06.839Z,-1.50
2018-01-26T02:15:33.532Z,-1.50
2018-01-26T02:18:00.201Z,-1.50
2018-01-26T02:20:26.968Z,-1.50
2018-01-26T02:22:54.415Z,-1.60
2018-01-26T02:25:21.811Z,-1.60
2018-01-26T02:27:48.515Z,-1.60
2018-01-26T02:30:15.945Z,-1.60
2018-01-26T02:32:42.647Z,-1.70
2018-01-26T02:35:09.322Z,-1.70
2018-01-26T02:37:36.007Z,-1.70
2018-01-26T02:40:03.469Z,-1.70
2018-01-26T02:42:30.894Z,-1.70
2018-01-26T02:44:57.634Z,-1.70
2018-01-26T02:47:24.321Z,-1.70
2018-01-26T02:49:51.731Z,-1.70
2018-01-26T02:52:18.434Z,-1.80
2018-01-26T02:54:45.876Z,-1.70
2018-01-26T02:57:13.286Z,-1.70
2018-01-26T02:59:39.955Z,-1.70
2018-01-26T03:02:06.654Z,-1.60
2018-01-26T03:04:33.300Z,-1.60
2018-01-26T03:06:59.971Z,-1.60
2018-01-26T03:09:26.670Z,-1.60
2018-01-26T03:11:53.370Z,-1.60
2018-01-26T03:14:20.055Z,-1.60
2018-01-26T03:16:47.481Z,-1.50
2018-01-26T03:19:14.152Z,-1.50
2018-01-26T03:21:41.559Z,-1.50
2018-01-26T03:24:08.245Z,-1.50
2018-01-26T03:26:35.653Z,-1.50
2018-01-26T03:29:02.366Z,-1.50
2018-01-26T03:31:29.050Z,-1.50
2018-01-26T03:33:55.742Z,-1.50
2018-01-26T03:36:23.133Z,-1.50
2018-01-26T03:38:49.819Z,-1.50
2018-01-26T03:41:16.506Z,-1.50
2018-01-26T03:43:50.210Z,-1.50
2018-01-26T03:46:16.873Z,-1.50
2018-01-26T03:48:43.551Z,-1.40
2018-01-26T03:51:10.281Z,-1.40
2018-01-26T03:53:36.943Z,-1.40
2018-01-26T03:56:03.626Z,-1.40
2018-01-26T03:58:30.294Z,-1.40
2018-01-26T04:00:56.958Z,-1.50
2018-01-26T04:03:23.655Z,-1.40
2018-01-26T04:05:50.326Z,-1.40
2018-01-26T04:08:16.997Z,-1.30
2018-01-26T04:10:43.704Z,-1.40
2018-01-26T04:13:10.389Z,-1.30
2018-01-26T04:15:37.094Z,-1.30
2018-01-26T04:18:03.802Z,-1.30
2018-01-26T04:20:31.276Z,-1.30
2018-01-26T04:22:57.940Z,-1.30
2018-01-26T04:25:24.633Z,-1.30
2018-01-26T04:27:52.054Z,-1.30
2018-01-26T04:30:18.852Z,-1.30
2018-01-26T04:32:46.315Z,-1.20
2018-01-26T04:35:13.720Z,-1.10
2018-01-26T04:37:40.384Z,-1.10
2018-01-26T04:40:07.110Z,-1.10
2018-01-26T04:42:33.838Z,-1.10
2018-01-26T04:45:00.489Z,-1.00
2018-01-26T04:47:27.177Z,-0.90
2018-01-26T04:49:54.557Z,-0.80
2018-01-26T04:52:21.246Z,-0.80
2018-01-26T04:54:47.924Z,-0.80
2018-01-26T04:57:15.340Z,-0.70
2018-01-26T04:59:42.011Z,-0.80
2018-01-26T05:02:08.692Z,-0.70
2018-01-26T05:04:35.423Z,-0.70
2018-01-26T05:07:02.833Z,-0.70
2018-01-26T05:09:29.558Z,-0.70
2018-01-26T05:11:56.224Z,-0.70
2018-01-26T05:14:22.907Z,-0.70
2018-01-26T05:16:50.468Z,-0.60
2018-01-26T05:19:17.186Z,-0.70
2018-01-26T05:21:43.870Z,-0.60
2018-01-26T05:24:10.568Z,-0.60
2018-01-26T05:26:37.246Z,-0.60
2018-01-26T05:29:04.726Z,-0.50
2018-01-26T05:31:31.527Z,-0.60
2018-01-26T05:33:58.207Z,-0.50
2018-01-26T05:36:24.879Z,-0.50
2018-01-26T05:38:51.585Z,-0.50
2018-01-26T05:41:19.115Z,-0.50
2018-01-26T05:43:45.897Z,-0.50
2018-01-26T05:46:12.569Z,-0.50
2018-01-26T05:48:40.149Z,-0.50
2018-01-26T05:51:06.850Z,-0.50
2018-01-26T05:53:34.424Z,-0.50
2018-01-26T05:56:01.137Z,-0.50
2018-01-26T05:58:27.814Z,-0.50
2018-01-26T06:00:54.595Z,-0.40
2018-01-26T06:03:21.324Z,-0.50
2018-01-26T06:05:48.033Z,-0.50
2018-01-26T06:08:14.752Z,-0.50
2018-01-26T06:10:42.192Z,-0.50
2018-01-26T06:13:08.960Z,-0.50
2018-01-26T06:15:36.427Z,-0.40
2018-01-26T06:18:03.948Z,-0.40
2018-01-26T06:20:30.643Z,-0.40
2018-01-26T06:22:58.087Z,-0.30
2018-01-26T06:25:25.571Z,-0.20
2018-01-26T06:27:52.342Z,-0.20
2018-01-26T06:30:19.113Z,-0.20
2018-01-26T06:32:45.850Z,-0.20
2018-01-26T06:35:12.522Z,-0.20
2018-01-26T06:37:39.226Z,-0.20
2018-01-26T06:40:05.889Z,-0.30
2018-01-26T06:42:32.950Z,-0.20
2018-01-26T06:44:59.653Z,-0.20
2018-01-26T06:47:26.342Z,-0.20
2018-01-26T06:49:53.054Z,-0.10
2018-01-26T06:52:19.753Z,0.10
2018-01-26T06:54:47.220Z,0.30
2018-01-26T06:57:13.917Z,0.20
2018-01-26T06:59:40.588Z,0.40
2018-01-26T07:02:08.042Z,0.80
2018-01-26T07:04:35.458Z,1.20
2018-01-26T07:07:02.167Z,1.20
2018-01-26T07:09:31.544Z,2.30
2018-01-26T07:11:58.205Z,2.30
2018-01-26T07:14:32.052Z,3.00
2018-01-26T07:16:58.787Z,3.40
2018-01-26T07:19:25.478Z,3.60
2018-01-26T07:21:52.167Z,3.90
2018-01-26T07:24:18.850Z,4.20
2018-01-26T07:26:45.543Z,4.70
2018-01-26T07:29:12.252Z,5.40
2018-01-26T07:31:38.957Z,5.90
2018-01-26T07:34:06.177Z,6.40
2018-01-26T07:36:33.590Z,7.20
2018-01-26T07:39:00.291Z,7.20
2018-01-26T07:41:26.961Z,7.60
2018-01-26T07:43:53.663Z,7.80
2018-01-26T07:46:21.090Z,8.20
2018-01-26T07:48:48.023Z,8.10
2018-01-26T07:51:14.797Z,8.20
2018-01-26T07:53:41.462Z,8.30
2018-01-26T07:56:08.867Z,8.70
2018-01-26T07:58:35.594Z,8.70
2018-01-26T08:01:02.314Z,9.40
2018-01-26T08:03:29.730Z,10.30
2018-01-26T08:05:56.513Z,10.20
2018-01-26T08:08:24.024Z,10.40
2018-01-26T08:10:50.772Z,10.40
2018-01-26T08:13:17.451Z,10.20
2018-01-26T08:15:44.950Z,9.70
2018-01-26T08:18:11.614Z,9.70
2018-01-26T08:20:38.314Z,9.40
2018-01-26T08:23:05.094Z,9.20
2018-01-26T08:25:31.811Z,9.20
2018-01-26T08:27:58.536Z,9.10
2018-01-26T08:30:26.072Z,9.10
2018-01-26T08:32:53.798Z,9.10
2018-01-26T08:35:27.669Z,9.00
2018-01-26T08:37:54.492Z,9.00
2018-01-26T08:40:21.276Z,9.20
2018-01-26T08:42:49.385Z,9.30
2018-01-26T08:45:16.101Z,9.30
2018-01-26T08:47:42.810Z,9.50
2018-01-26T08:50:09.607Z,9.70
2018-01-26T08:52:36.292Z,10.20
2018-01-26T08:55:03.112Z,10.60
2018-01-26T08:57:29.861Z,11.10
2018-01-26T08:59:56.616Z,11.80
2018-01-26T09:02:23.393Z,12.40
2018-01-26T09:17:50.335Z,14.60
2018-01-26T09:20:17.089Z,14.50
2018-01-26T09:22:43.809Z,14.70
2018-01-26T09:25:10.562Z,14.50
2018-01-26T09:27:37.306Z,14.80
2018-01-26T09:30:04.097Z,14.90
2018-01-26T09:32:30.827Z,14.70
2018-01-26T09:34:58.301Z,14.10
2018-01-26T09:37:25.776Z,14.30
2018-01-26T09:39:52.586Z,14.30
2018-01-26T09:42:19.309Z,13.90
2018-01-26T09:44:45.989Z,13.30
2018-01-26T09:47:13.460Z,13.10
2018-01-26T09:49:40.220Z,13.00
2018-01-26T09:52:06.921Z,13.10
2018-01-26T09:54:33.653Z,12.90
2018-01-26T09:57:00.381Z,12.90
2018-01-26T09:59:27.095Z,12.60
2018-01-26T10:01:53.815Z,12.20
2018-01-26T10:04:20.571Z,11.30
2018-01-26T10:06:47.262Z,10.70
2018-01-26T10:09:14.076Z,10.40
2018-01-26T10:11:40.754Z,10.40
2018-01-26T10:14:07.469Z,10.60
2018-01-26T10:16:34.170Z,10.70
2018-01-26T10:19:01.577Z,10.20
2018-01-26T10:21:28.310Z,10.20
2018-01-26T10:23:54.981Z,10.10
2018-01-26T10:26:21.683Z,10.10
2018-01-26T10:28:48.415Z,10.30
2018-01-26T10:31:15.184Z,10.40
2018-01-26T10:33:41.854Z,10.50
2018-01-26T10:36:08.642Z,10.50
2018-01-26T10:38:36.060Z,10.50
2018-01-26T10:41:03.474Z,10.50
2018-01-26T10:43:30.166Z,10.40
2018-01-26T10:45:56.854Z,10.20
2018-01-26T10:48:24.300Z,9.60
2018-01-26T10:50:51.745Z,9.60
2018-01-26T10:53:18.431Z,9.50
2018-01-26T10:55:45.119Z,9.70
2018-01-26T10:58:11.837Z,9.70
2018-01-26T11:00:38.580Z,9.70
2018-01-26T11:03:05.308Z,9.70
2018-01-26T11:05:31.999Z,9.90
2018-01-26T11:07:58.729Z,9.90
2018-01-26T11:10:25.442Z,9.90
2018-01-26T11:12:52.145Z,9.80
2018-01-26T11:15:18.886Z,9.90
2018-01-26T11:17:45.560Z,10.10
2018-01-26T11:20:12.353Z,10.60
2018-01-26T11:22:39.124Z,10.80
2018-01-26T11:25:06.564Z,10.70
2018-01-26T11:27:33.286Z,10.70
2018-01-26T11:29:59.986Z,11.40
2018-01-26T11:32:27.412Z,12.00
2018-01-26T11:34:54.115Z,12.00
2018-01-26T11:37:20.823Z,12.00
2018-01-26T11:39:48.356Z,12.20
2018-01-26T11:42:15.042Z,12.20
2018-01-26T11:44:42.463Z,12.80
2018-01-26T11:47:09.153Z,12.80
2018-01-26T11:49:35.826Z,13.30
2018-01-26T11:52:02.517Z,13.60
2018-01-26T11:54:29.976Z,14.00
2018-01-26T11:56:57.415Z,14.00
2018-01-26T11:59:24.499Z,14.00
2018-01-26T12:01:51.939Z,13.40
2018-01-26T12:04:18.717Z,13.40
2018-01-26T12:06:47.189Z,11.90
2018-01-26T12:09:14.679Z,11.60
2018-01-26T12:11:41.446Z,11.60
2018-01-26T12:14:08.209Z,11.30
2018-01-26T12:16:35.026Z,11.10
2018-01-26T12:19:01.846Z,11.20
2018-01-26T12:21:28.603Z,11.20
2018-01-26T12:23:55.327Z,10.80
2018-01-26T12:26:22.778Z,10.20
2018-01-26T12:28:50.244Z,10.10
2018-01-26T12:31:18.840Z,10.10
2018-01-26T12:33:45.888Z,10.10
2018-01-26T12:36:13.354Z,10.10
2018-01-26T12:38:40.048Z,10.10
2018-01-26T12:41:07.827Z,10.10
2018-01-26T12:43:34.503Z,10.00
2018-01-26T12:59:21.698Z,10.00
2018-01-26T13:01:48.451Z,9.90
2018-01-26T13:04:15.174Z,9.90
2018-01-26T13:06:42.076Z,9.80
2018-01-26T13:09:09.509Z,9.70
2018-01-26T13:11:36.178Z,9.70
2018-01-26T13:14:03.651Z,9.70
2018-01-26T13:16:30.338Z,9.70
2018-01-26T13:18:57.154Z,9.50
2018-01-26T13:21:24.923Z,9.40
2018-01-26T13:23:51.639Z,9.40
2018-01-26T13:26:19.142Z,9.10
2018-01-26T13:28:45.839Z,9.10
2018-01-26T13:31:13.335Z,9.00
2018-01-26T13:33:40.053Z,9.00
2018-01-26T13:36:06.830Z,8.80
2018-01-26T13:38:33.529Z,8.50
2018-01-26T13:41:01.000Z,8.50
2018-01-26T13:43:28.580Z,8.50
2018-01-26T13:45:55.318Z,8.50
2018-01-26T13:48:22.038Z,8.50
2018-01-26T13:50:49.539Z,8.40
2018-01-26T13:53:16.284Z,8.40
2018-01-26T13:55:43.084Z,8.20
2018-01-26T13:58:09.847Z,7.90
2018-01-26T14:00:39.475Z,7.70
2018-01-26T14:03:06.218Z,7.70
2018-01-26T14:05:33.014Z,7.70
2018-01-26T14:07:59.687Z,7.80
2018-01-26T14:10:27.107Z,7.70
2018-01-26T14:12:53.866Z,7.70
2018-01-26T14:15:20.644Z,7.80
2018-01-26T14:17:47.362Z,7.90
2018-01-26T14:20:14.027Z,8.00
2018-01-26T14:22:41.488Z,8.00
2018-01-26T14:25:08.951Z,8.00
2018-01-26T14:27:35.737Z,8.00
2018-01-26T14:30:02.434Z,8.10
2018-01-26T14:32:29.862Z,8.10
2018-01-26T14:34:56.592Z,8.10
2018-01-26T14:37:23.296Z,8.10
2018-01-26T14:39:49.989Z,8.00
2018-01-26T14:42:16.669Z,7.90
2018-01-26T14:44:43.397Z,7.90
2018-01-26T14:47:10.112Z,7.90
2018-01-26T14:49:36.824Z,7.80
2018-01-26T14:52:03.507Z,7.70
2018-01-26T14:54:30.198Z,7.70
2018-01-26T14:56:56.901Z,7.70
2018-01-26T14:59:23.561Z,7.60
2018-01-26T15:01:51.033Z,7.50
2018-01-26T15:04:18.454Z,7.40
2018-01-26T15:06:45.137Z,7.40
2018-01-26T15:09:12.600Z,7.40
2018-01-26T15:11:40.069Z,7.30
2018-01-26T15:14:06.800Z,7.30
2018-01-26T15:16:33.485Z,7.20
2018-01-26T15:19:00.237Z,7.10
2018-01-26T15:21:26.939Z,7.10
2018-01-26T15:23:54.341Z,6.80
2018-01-26T15:26:21.045Z,6.80
2018-01-26T15:28:47.838Z,6.70
2018-01-26T15:31:14.552Z,6.60
2018-01-26T15:33:41.343Z,6.50
2018-01-26T15:36:08.104Z,6.50
2018-01-26T15:38:35.607Z,6.30
2018-01-26T15:41:02.322Z,6.30
2018-01-26T15:43:29.750Z,6.20
2018-01-26T15:45:56.501Z,6.20
2018-01-26T15:48:23.173Z,6.10
2018-01-26T15:50:49.932Z,6.00
2018-01-26T15:53:16.659Z,6.00
2018-01-26T15:55:44.150Z,5.90
2018-01-26T15:58:10.851Z,5.90
2018-01-26T16:00:38.274Z,5.80
2018-01-26T16:03:05.017Z,5.80
2018-01-26T16:05:31.697Z,5.80
2018-01-26T16:07:59.166Z,5.60
2018-01-26T16:10:26.626Z,5.60
2018-01-26T16:12:54.097Z,5.60
2018-01-26T16:15:21.679Z,5.60
2018-01-26T16:17:48.410Z,5.60
2018-01-26T16:20:15.201Z,5.60
2018-01-26T16:22:41.990Z,5.50
2018-01-26T16:25:09.515Z,5.50
2018-01-26T16:27:36.310Z,5.50
2018-01-26T16:30:03.130Z,5.50
2018-01-26T16:32:29.978Z,5.40
2018-01-26T16:34:56.781Z,5.30
2018-01-26T16:37:23.470Z,5.20
2018-01-26T16:39:50.914Z,5.10
2018-01-26T16:42:17.698Z,5.10
2018-01-26T16:44:44.431Z,5.10
2018-01-26T16:47:12.048Z,5.00
2018-01-26T16:49:38.738Z,5.00
2018-01-26T16:52:05.457Z,5.00
2018-01-26T16:54:32.191Z,4.90
2018-01-26T16:56:58.907Z,4.80
2018-01-26T16:59:25.630Z,4.80
2018-01-26T17:01:52.367Z,4.80
2018-01-26T17:04:19.148Z,4.70
2018-01-26T17:06:48.009Z,4.60
2018-01-26T17:09:16.868Z,4.60
2018-01-26T17:11:43.632Z,4.60
2018-01-26T17:14:11.058Z,4.60
2018-01-26T17:16:37.896Z,4.60
2018-01-26T17:19:04.719Z,4.60
2018-01-26T17:21:31.477Z,4.50
2018-01-26T17:23:58.301Z,4.40
2018-01-26T17:26:24.997Z,4.30
2018-01-26T17:28:52.478Z,4.20
2018-01-26T17:31:19.914Z,4.20
2018-01-26T17:33:46.608Z,4.20
2018-01-26T17:36:13.310Z,4.10
2018-01-26T17:38:40.067Z,4.10
2018-01-26T17:41:09.635Z,4.00
2018-01-26T17:43:38.419Z,4.00
2018-01-26T17:46:10.215Z,4.10
2018-01-26T17:48:36.959Z,4.10
2018-01-26T17:51:03.664Z,4.00
2018-01-26T17:53:30.431Z,4.00
2018-01-26T17:55:57.138Z,3.90
2018-01-26T17:58:23.944Z,3.90
2018-01-26T18:00:51.467Z,3.80
2018-01-26T18:03:18.169Z,3.80
2018-01-26T18:05:44.875Z,3.70
2018-01-26T18:08:11.597Z,3.70
2018-01-26T18:10:38.347Z,3.60
2018-01-26T18:13:05.124Z,3.60
2018-01-26T18:15:31.809Z,3.50
2018-01-26T18:17:58.505Z,3.40
2018-01-26T18:20:25.243Z,3.40
2018-01-26T18:22:52.098Z,3.40
2018-01-26T18:25:19.598Z,3.20
2018-01-26T18:27:46.360Z,3.20
2018-01-26T18:30:13.110Z,3.10
2018-01-26T18:32:39.859Z,3.00
2018-01-26T18:35:06.633Z,2.90
2018-01-26T18:37:33.495Z,2.80
2018-01-26T18:40:00.934Z,2.70
2018-01-26T18:42:27.670Z,2.60
2018-01-26T18:44:54.396Z,2.60
2018-01-26T18:47:21.084Z,2.50
2018-01-26T18:49:47.823Z,2.50
2018-01-26T18:52:14.574Z,2.50
2018-01-26T18:54:42.039Z,2.40
2018-01-26T18:57:09.514Z,2.30
2018-01-26T18:59:36.269Z,2.30
2018-01-26T19:02:02.973Z,2.20
2018-01-26T19:04:29.848Z,2.20
2018-01-26T19:06:56.579Z,2.10
2018-01-26T19:09:24.065Z,2.00
2018-01-26T19:11:50.766Z,2.00
2018-01-26T19:14:17.461Z,2.00
2018-01-26T19:16:44.411Z,2.00
2018-01-26T19:19:11.112Z,1.90
2018-01-26T19:21:37.806Z,1.80
2018-01-26T19:24:04.566Z,1.80
2018-01-26T19:26:31.253Z,1.70
2018-01-26T19:28:58.708Z,1.60
2018-01-26T19:31:26.395Z,1.50
2018-01-26T19:33:53.312Z,1.50
2018-01-26T19:36:20.089Z,1.50
2018-01-26T19:38:47.554Z,1.40
2018-01-26T19:41:14.274Z,1.30
2018-01-26T19:43:40.969Z,1.30
2018-01-26T19:46:14.744Z,1.30
2018-01-26T19:48:41.836Z,1.20
2018-01-26T19:51:09.330Z,1.10
2018-01-26T19:53:36.435Z,1.10
2018-01-26T19:56:03.198Z,1.00
2018-01-26T19:58:30.149Z,0.90
2018-01-26T20:00:57.090Z,0.90
2018-01-26T20:03:29.986Z,0.80
2018-01-26T20:06:02.874Z,0.80
2018-01-26T20:08:35.713Z,0.70
2018-01-26T20:11:02.475Z,0.70
2018-01-26T20:13:29.206Z,0.60
2018-01-26T20:15:59.846Z,0.50
2018-01-26T20:18:26.831Z,0.50
2018-01-26T20:20:54.844Z,0.50
2018-01-26T20:23:21.763Z,0.50
2018-01-26T20:25:48.925Z,0.50
2018-01-26T20:28:16.011Z,0.40
2018-01-26T20:30:42.899Z,0.40
2018-01-26T20:33:09.614Z,0.40
2018-01-26T20:35:37.316Z,0.40
2018-01-26T20:38:04.953Z,0.40
2018-01-26T20:40:31.819Z,0.30
2018-01-26T20:42:58.816Z,0.30
2018-01-26T20:45:27.416Z,0.30
2018-01-26T20:47:57.226Z,0.30
2018-01-26T20:50:23.968Z,0.30
2018-01-26T20:52:50.790Z,0.30
2018-01-26T20:55:17.633Z,0.30
2018-01-26T20:57:44.854Z,0.30
2018-01-26T21:00:11.626Z,0.20
2018-01-26T21:02:38.650Z,0.20
2018-01-26T21:05:05.383Z,0.20
2018-01-26T21:07:32.435Z,0.20
2018-01-26T21:09:59.191Z,0.10
2018-01-26T21:12:26.205Z,0.10
2018-01-26T21:14:52.979Z,0.00
2018-01-26T21:17:19.700Z,-0.10
2018-01-26T21:19:47.179Z,-0.20
2018-01-26T21:22:14.817Z,-0.20
2018-01-26T21:24:41.560Z,-0.20
2018-01-26T21:27:08.239Z,-0.20
2018-01-26T21:29:35.082Z,-0.20
2018-01-26T21:32:01.778Z,-0.30
2018-01-26T21:34:28.446Z,-0.30
2018-01-26T21:36:56.349Z,-0.40
2018-01-26T21:39:23.934Z,-0.40
2018-01-26T21:41:50.691Z,-0.40
2018-01-26T21:44:17.438Z,-0.50
2018-01-26T21:46:44.381Z,-0.50
2018-01-26T21:49:11.119Z,-0.60
2018-01-26T21:51:37.822Z,-0.60
2018-01-26T21:54:05.323Z,-0.70
2018-01-26T21:56:32.018Z,-0.70
2018-01-26T21:58:59.460Z,-0.70
2018-01-26T22:01:26.152Z,-0.70
2018-01-26T22:03:53.939Z,-0.70
2018-01-26T22:09:20.904Z,-0.70
2018-01-26T22:11:47.735Z,-0.70
2018-01-26T22:14:14.491Z,-0.70
2018-01-26T22:16:41.177Z,-0.80
2018-01-26T22:19:07.923Z,-0.80
2018-01-26T22:21:34.614Z,-0.80
2018-01-26T22:24:01.300Z,-0.90
2018-01-26T22:26:28.102Z,-0.90
2018-01-26T22:28:54.785Z,-0.90
2018-01-26T22:31:21.443Z,-0.90
2018-01-26T22:33:48.169Z,-0.90
2018-01-26T22:36:14.834Z,-0.90
2018-01-26T22:38:41.570Z,-1.00
2018-01-26T22:41:08.286Z,-1.00
2018-01-26T22:43:34.978Z,-1.00
2018-01-26T22:46:02.447Z,-1.10
2018-01-26T22:48:29.918Z,-1.20
2018-01-26T22:50:57.410Z,-1.20
2018-01-26T22:53:24.144Z,-1.20
2018-01-26T22:55:50.881Z,-1.20
2018-01-26T22:58:17.636Z,-1.20
2018-01-26T23:00:44.306Z,-1.30
2018-01-26T23:03:11.087Z,-1.30
2018-01-26T23:05:38.575Z,-1.40
2018-01-26T23:08:05.353Z,-1.40
2018-01-26T23:10:32.247Z,-1.40
2018-01-26T23:12:59.737Z,-1.50
2018-01-26T23:15:26.545Z,-1.50
2018-01-26T23:17:53.998Z,-1.50
2018-01-26T23:20:21.602Z,-1.60
2018-01-26T23:22:48.366Z,-1.60
2018-01-26T23:25:15.090Z,-1.60
2018-01-26T23:27:41.774Z,-1.60
2018-01-26T23:30:08.494Z,-1.60
2018-01-26T23:32:35.249Z,-1.70
2018-01-26T23:35:01.990Z,-1.70
2018-01-26T23:37:28.708Z,-1.70
2018-01-26T23:39:55.427Z,-1.70
2018-01-26T23:42:22.837Z,-1.80
2018-01-26T23:44:49.550Z,-1.80
2018-01-26T23:47:16.314Z,-1.80
2018-01-26T23:49:42.987Z,-1.90
2018-01-26T23:52:09.672Z,-1.90
2018-01-26T23:54:36.430Z,-2.00
2018-01-26T23:57:03.089Z,-2.00
2018-01-26T23:59:29.756Z,-2.00
